Latest Coastal Weather Observations for Cocos Island

IDW60701

Issued at 11:02 am WST Sunday 1 March 2015 (issued every 10 minutes, with the page automatically refreshed every 10 minutes)

About coastal observations | Map of coastal stations | Coastal observations for WA | Marine services | Other Formats
Station Details ID: 200284 Name: COCOS ISLAND AIRPORT Lat: -12.19 Lon: 96.83 Height: 3.0 m
Data from the previous 72 hours. | See also: Recent months at Cocos Island
Date/Time
WST
Temp

°C
Wind Pressure Rain
since 9am
mm
Weather Cloud Vis
km
Sea
Height
m
Swell
Dir
 
Speed
knots
Gust
knots
hPa Trend Height
m
Period
s
Dir
01/10:30am 27.5 S 11 13 1011.9 - - - Mostly clear 10 - - - -
01/10:00am 26.9 S 12 15 1011.7 - 4.8 - Mostly clear 10 - - - -
01/09:30am 26.5 S 10 12 1011.5 - 4.8 - Mostly clear 10 - - - -
01/09:00am 26.2 SW 6 8 1011.1 - 4.8 - Mostly clear 10 - - - -
01/08:30am 25.7 WSW 3 5 1010.7 - 4.8 - Mostly clear 10 - - - -
01/08:00am 24.8 WSW 7 8 1010.4 - 4.8 Drizzle Mostly cloudy 25 - - - -
01/07:30am 24.6 WSW 4 6 1010.2 - 4.8 Showers Partly cloudy 10 - - - -
01/07:00am 24.1 SE 5 7 1010.0 - 4.8 - Mostly clear 10 - - - -
01/06:42am 23.8 ESE 5 6 1009.9 - 4.8 - Partly cloudy 5 - - - -
01/06:30am 23.8 SE 7 9 1009.9 - 4.2 - Partly cloudy 3 - - - -
01/06:27am 23.9 SE 8 9 1009.9 - 3.8 - Partly cloudy 3 - - - -
01/06:01am 25.1 SSE 7 9 1009.8 - 1.6 - Partly cloudy 6 - - - -
01/06:00am 25.1 SSE 7 9 1009.8 - 1.6 - Partly cloudy 7 - - - -
01/05:30am 25.5 ESE 5 9 1009.6 - 1.4 - - 10 - - - -
01/05:04am 25.4 E 5 7 1009.6 - 1.2 - Partly cloudy 10 - - - -
01/05:00am 25.3 E 6 7 1009.6 - 1.2 - Cloudy 10 - - - -
01/04:42am 25.0 E 6 9 1009.8 - 0.8 - Partly cloudy 5 - - - -
01/04:30am 26.2 ENE 7 9 1009.7 - 0.0 - Partly cloudy 10 - - - -
01/04:00am 26.6 NE 6 9 1009.8 - 0.0 - Partly cloudy 10 - - - -
01/03:30am 26.5 SE 4 7 1010.1 - 0.0 - Partly cloudy 10 - - - -
01/03:00am 27.1 SE 5 6 1010.3 - 0.0 - - 10 - - - -
01/02:30am 27.2 SSE 6 8 1010.5 - 0.0 - Partly cloudy 10 - - - -
01/02:00am 27.0 SE 5 7 1010.8 - 0.0 - - 10 - - - -
01/01:30am 26.7 SE 4 6 1011.1 - 0.0 - Partly cloudy 10 - - - -
01/01:00am 27.2 ESE 5 8 1011.2 - 0.0 - Partly cloudy 10 - - - -
01/12:30am 27.2 ESE 5 7 1011.4 - 0.0 - Partly cloudy 10 - - - -
01/12:00am 27.0 ESE 5 7 1011.5 - 0.0 - - 10 - - - -
 
Date/Time
WST
Temp

°C
Wind Pressure Rain
since 9am
mm
Weather Cloud Vis
km
Sea
Height
m
Swell
Dir
 
Speed
knots
Gust
knots
hPa Trend Height
m
Period
s
Dir
28/11:30pm 27.2 ESE 5 6 1011.6 - 0.0 - Partly cloudy 10 - - - -
28/11:00pm 27.5 ESE 6 8 1011.4 - 0.0 - Mostly clear 10 - - - -
28/10:30pm 27.5 ESE 6 7 1011.2 - 0.0 - Partly cloudy 10 - - - -
28/10:00pm 27.7 ESE 7 9 1010.9 - 0.0 - Partly cloudy 10 - - - -
28/09:30pm 27.7 ESE 7 9 1010.4 - 0.0 - - 10 - - - -
28/09:00pm 27.8 ESE 7 9 1010.1 - 0.0 - - 10 - - - -
28/08:30pm 27.8 ESE 7 9 1009.9 - 0.0 - - 10 - - - -
28/08:00pm 27.9 ESE 8 10 1009.7 - 0.0 - - 10 - - - -
28/07:30pm 28.2 ESE 8 10 1009.3 - 0.0 - - 10 - - - -
28/07:00pm 28.7 ESE 7 9 1009.0 - 0.0 - - 10 - - - -
28/06:30pm 28.6 ESE 9 11 1008.9 - 0.0 - - 10 - - - -
28/06:00pm 29.1 E 8 11 1008.9 - 0.0 - Mostly clear 10 - - - -
28/05:30pm 29.1 ESE 9 11 1008.8 - 0.0 - Mostly clear 10 - - - -
28/05:00pm 28.9 SE 8 11 1008.9 - 0.0 Fine Mostly cloudy 30 - - - -
28/04:30pm 29.2 SE 8 11 1009.0 - 0.0 - Mostly clear 10 - - - -
28/04:00pm 30.1 ESE 7 10 1009.2 - 0.0 - Partly cloudy 10 - - - -
28/03:30pm 29.0 ESE 8 11 1009.5 - 0.0 - Mostly clear 10 - - - -
28/03:00pm 28.7 ESE 8 11 1009.6 - 0.0 - Mostly clear 10 - - - -
28/02:30pm 29.0 ESE 7 10 1009.9 - 0.0 - Mostly clear 10 - - - -
28/02:00pm 29.1 ESE 9 11 1010.4 - 0.0 Fine Mostly cloudy 30 - - - -
28/01:30pm 28.7 ESE 9 12 1010.7 - 0.0 - Mostly clear 10 - - - -
28/01:00pm 29.0 ESE 10 13 1010.9 - 0.0 - Mostly clear 10 - - - -
28/12:30pm 28.5 SE 9 12 1011.2 - 0.0 - Mostly clear 10 - - - -
28/12:00pm 28.3 SE 9 11 1011.3 - 0.0 - Mostly clear 10 - - - -
28/11:30am 28.3 SE 9 12 1011.4 - 0.0 - Mostly clear 10 - - - -
28/11:00am 28.7 SE 9 12 1011.5 - 0.0 Distant precip. Mostly cloudy 30 - - - -
28/10:30am 29.2 SE 9 12 1011.5 - 0.0 - Partly cloudy 10 - - - -
28/10:00am 27.2 ENE 7 10 1011.3 - 0.0 - Partly cloudy 10 - - - -
28/09:30am 26.6 E 9 12 1011.2 - 0.0 - Partly cloudy 10 - - - -
28/09:00am 26.6 E 5 7 1011.0 - 0.0 - Mostly clear 10 - - - -
28/08:30am 26.3 E 7 9 1010.6 - 0.0 - Mostly clear 10 - - - -
28/08:00am 26.2 E 7 11 1010.1 - 0.0 Distant precip. Mostly cloudy 25 - - - -
28/07:30am 25.9 E 10 13 1009.8 - 0.0 - Mostly clear 10 - - - -
28/07:00am 25.9 E 13 15 1009.2 - 0.0 Showers Mostly clear 10 - - - -
28/06:30am 26.1 E 11 13 1009.3 - 0.0 - Cloudy 10 - - - -
28/06:00am 25.7 ENE 13 15 1009.0 - 0.0 - Cloudy 10 - - - -
28/05:30am 25.3 ENE 13 15 1009.1 - 0.0 - Partly cloudy 10 - - - -
28/05:00am 25.5 E 11 14 1009.2 - 0.0 - Cloudy 10 - - - -
28/04:30am 25.4 E 11 13 1009.2 - 0.0 - Cloudy 10 - - - -
28/04:00am 25.2 E 12 14 1009.2 - 0.0 - Partly cloudy 10 - - - -
28/03:30am 25.8 SE 9 12 1009.4 - 0.0 - Partly cloudy 10 - - - -
28/03:00am 26.5 ESE 8 12 1009.8 - 0.0 - Partly cloudy 10 - - - -
28/02:30am 26.6 ESE 9 12 1010.1 - 0.0 - - 10 - - - -
28/02:00am 26.4 E 6 8 1010.1 - 0.0 - Mostly clear 10 - - - -
28/01:30am 26.4 E 7 9 1010.5 - 0.0 - Partly cloudy 10 - - - -
28/01:00am 26.4 E 9 11 1010.7 - 0.0 - Partly cloudy 10 - - - -
28/12:30am 26.4 E 9 11 1010.9 - 0.0 - Partly cloudy 10 - - - -
28/12:00am 26.3 ESE 11 14 1011.1 - 0.0 - Partly cloudy 10 - - - -
 
Date/Time
WST
Temp

°C
Wind Pressure Rain
since 9am
mm
Weather Cloud Vis
km
Sea
Height
m
Swell
Dir
 
Speed
knots
Gust
knots
hPa Trend Height
m
Period
s
Dir
27/11:30pm 26.3 SE 12 16 1011.1 - 0.0 - Partly cloudy 10 - - - -
27/11:00pm 26.2 SE 13 16 1010.9 - 0.0 - - 10 - - - -
27/10:30pm 26.3 SE 12 16 1010.5 - 0.0 - Partly cloudy 10 - - - -
27/10:00pm 26.3 SE 11 15 1010.4 - 0.0 - Partly cloudy 10 - - - -
27/09:30pm 26.4 SE 13 17 1010.0 - 0.0 - Partly cloudy 10 - - - -
27/09:00pm 26.6 SE 13 16 1009.6 - 0.0 - Partly cloudy 10 - - - -
27/08:30pm 26.7 SSE 11 15 1009.3 - 0.0 - Partly cloudy 10 - - - -
27/08:00pm 27.2 SSE 10 12 1009.0 - 0.0 - Cloudy 10 - - - -
27/07:30pm 27.1 SSE 10 14 1008.9 - 0.0 - Partly cloudy 10 - - - -
27/07:00pm 27.8 SE 9 13 1008.7 - 0.0 - Partly cloudy 10 - - - -
27/06:30pm 27.8 SE 11 14 1008.5 - 0.0 - - 10 - - - -
27/06:00pm 28.6 ESE 11 14 1008.3 - 0.0 - Mostly clear 10 - - - -
27/05:30pm 28.7 SE 12 15 1008.1 - 0.0 - Mostly clear 10 - - - -
27/05:00pm 28.9 ESE 12 14 1008.0 - 0.0 Fine Mostly cloudy 20 - - - -
27/04:30pm 29.1 SE 12 15 1008.1 - 0.0 - Mostly clear 10 - - - -
27/04:00pm 29.2 SE 11 14 1008.3 - 0.0 - Mostly clear 10 - - - -
27/03:30pm 29.1 ESE 12 15 1008.3 - 0.0 - Mostly clear 10 - - - -
27/03:00pm 29.3 ESE 12 15 1008.7 - 0.0 - Mostly clear 10 - - - -
27/02:30pm 28.8 SE 11 15 1009.0 - 0.0 - Mostly clear 10 - - - -
27/02:00pm 29.3 ESE 12 16 1009.3 - 0.0 Fine Mostly cloudy 20 - - - -
27/01:30pm 28.8 ESE 9 12 1010.0 - 0.0 - Mostly clear 10 - - - -
27/01:00pm 28.6 ESE 10 15 1010.4 - 0.0 - Partly cloudy 10 - - - -
27/12:30pm 28.5 SE 13 16 1010.5 - 0.0 - Mostly clear 10 - - - -
27/12:00pm 28.4 ESE 13 17 1010.4 - 0.0 - Partly cloudy 10 - - - -
27/11:30am 28.4 ESE 13 17 1010.6 - 0.0 - Mostly clear 10 - - - -
27/11:00am 28.7 ESE 13 18 1010.7 - 3.4 Fine Partly cloudy 20 - - - -
27/10:30am 28.1 SE 13 18 1010.7 - 3.4 - Mostly clear 10 - - - -
27/10:00am 28.0 SE 13 17 1010.5 - 3.4 - Mostly clear 10 - - - -
27/09:30am 27.6 SE 13 18 1010.3 - 3.4 - Partly cloudy 10 - - - -
27/09:00am 27.5 SE 13 17 1009.8 - 3.4 - Mostly clear 10 - - - -
27/08:30am 27.3 SE 11 14 1009.6 - 3.4 - Mostly clear 10 - - - -
27/08:00am 27.1 SE 11 14 1009.5 - 3.4 Distant precip. Partly cloudy 20 - - - -
27/07:30am 26.9 SE 9 13 1009.3 - 3.4 - Mostly clear 10 - - - -
27/07:00am 27.1 SE 10 13 1009.1 - 3.4 - Mostly clear 10 - - - -
27/06:30am 27.0 SE 11 13 1009.0 - 3.4 - Partly cloudy 10 - - - -
27/06:00am 27.2 SE 12 16 1008.7 - 3.4 - Partly cloudy 10 - - - -
27/05:30am 27.3 SE 10 13 1008.7 - 3.4 - Partly cloudy 10 - - - -
27/05:00am 27.0 SE 10 13 1008.8 - 3.4 - Cloudy 10 - - - -
27/04:30am 27.2 SE 9 11 1009.0 - 3.4 - Partly cloudy 10 - - - -
27/04:00am 27.3 SE 9 12 1009.0 - 3.4 - Partly cloudy 10 - - - -
27/03:30am 27.3 SE 10 12 1009.4 - 3.4 - Cloudy 10 - - - -
27/03:00am 27.4 SE 11 14 1009.8 - 3.4 - Partly cloudy 10 - - - -
27/02:30am 27.3 SE 9 13 1010.0 - 3.4 - Partly cloudy 10 - - - -
27/02:00am 27.4 SE 9 11 1010.4 - 3.4 - Cloudy 10 - - - -
27/01:30am 27.3 SE 9 11 1010.8 - 3.4 - Partly cloudy 10 - - - -
27/01:00am 27.2 SE 9 11 1011.1 - 3.4 - Partly cloudy 10 - - - -
27/12:30am 27.3 SE 10 12 1011.4 - 3.4 - Partly cloudy 10 - - - -
27/12:00am 27.4 SE 10 13 1011.5 - 3.4 - - 10 - - - -
 
Date/Time
WST
Temp

°C
Wind Pressure Rain
since 9am
mm
Weather Cloud Vis
km
Sea
Height
m
Swell
Dir
 
Speed
knots
Gust
knots
hPa Trend Height
m
Period
s
Dir
26/11:30pm 27.6 ESE 11 13 1011.5 - 3.4 - Partly cloudy 10 - - - -
26/11:00pm 27.4 SE 10 13 1011.1 - 3.4 - - 10 - - - -
26/10:30pm 27.6 SE 10 13 1010.9 - 3.4 - - 10 - - - -
26/10:00pm 27.4 SE 9 11 1010.7 - 3.4 - - 10 - - - -
26/09:30pm 27.5 SE 8 11 1010.5 - 3.4 - Partly cloudy 10 - - - -
26/09:00pm 27.6 SE 8 11 1010.2 - 3.4 - - 10 - - - -
26/08:30pm 27.5 SSE 7 10 1010.2 - 3.4 - Partly cloudy 10 - - - -
26/08:00pm 27.7 SE 8 11 1009.8 - 3.4 - Mostly clear 10 - - - -
26/07:30pm 27.8 SSE 8 11 1009.3 - 3.4 - - 10 - - - -
26/07:00pm 28.2 SE 9 11 1009.1 - 3.4 - - 10 - - - -
26/06:30pm 28.3 SE 8 11 1009.1 - 3.4 - Mostly clear 10 - - - -
26/06:00pm 28.4 SE 9 13 1009.0 - 3.4 - Mostly clear 10 - - - -
26/05:30pm 28.5 SE 9 12 1008.9 - 3.4 - Mostly clear 10 - - - -
26/05:00pm 28.5 SE 10 13 1008.9 - 3.4 Distant precip. Mostly cloudy 20 - - - -
26/04:30pm 28.6 SE 10 13 1009.1 - 3.4 - Mostly clear 10 - - - -
26/04:00pm 28.6 SE 11 15 1009.3 - 3.4 - Mostly clear 10 - - - -
26/03:30pm 28.8 SE 12 16 1009.8 - 3.4 - Mostly clear 10 - - - -
26/03:00pm 29.2 SE 12 17 1009.7 - 3.4 - Mostly clear 10 - - - -
26/02:30pm 29.2 SE 13 16 1009.8 - 3.4 - Mostly clear 10 - - - -
26/02:00pm 28.7 SE 13 17 1010.5 - 3.4 Fine Mostly cloudy 20 - - - -
26/01:30pm 28.0 SE 15 20 1010.8 - 3.4 - Mostly clear 10 - - - -
26/01:00pm 28.4 ESE 13 17 1011.1 - 3.4 - Mostly clear 10 - - - -

Other Formats:

Comma delimited format used in spreadsheet applications
http://www.bom.gov.au/fwo/IDW60701/IDW60701.96996.axf

JavaScript Object Notation format (JSON) in row-major order
http://www.bom.gov.au/fwo/IDW60701/IDW60701.96996.json